createdAt,value
2023-03-23T15:57:55.615Z,3.60
2023-03-23T15:59:59.027Z,4.07
2023-03-23T16:02:02.574Z,3.75
2023-03-23T16:04:09.083Z,3.10
2023-03-23T16:06:24.140Z,3.50
2023-03-23T16:08:29.049Z,3.60
2023-03-23T16:10:32.553Z,2.38
2023-03-23T16:12:36.034Z,2.97
2023-03-23T16:14:41.040Z,2.10
2023-03-23T16:16:49.716Z,1.70
2023-03-23T16:18:54.508Z,2.45
2023-03-23T16:20:57.941Z,2.60
2023-03-23T16:23:01.621Z,2.65
2023-03-23T16:25:05.676Z,2.65
2023-03-23T16:27:11.412Z,2.25
2023-03-23T16:29:33.745Z,3.00
2023-03-23T16:31:42.231Z,3.22
2023-03-23T16:33:46.039Z,2.38
2023-03-23T16:35:49.657Z,2.58
2023-03-23T16:38:08.458Z,2.80
2023-03-23T16:40:13.715Z,2.45
2023-03-23T16:42:17.175Z,2.53
2023-03-23T16:44:20.832Z,3.10
2023-03-23T16:46:24.278Z,2.78
2023-03-23T16:48:29.322Z,2.75
2023-03-23T16:50:33.432Z,3.35
2023-03-23T16:52:46.246Z,3.10
2023-03-23T16:54:50.050Z,3.35
2023-03-23T16:56:53.887Z,2.85
2023-03-23T16:58:57.345Z,2.83
2023-03-23T17:01:02.803Z,3.22
2023-03-23T17:03:06.473Z,3.75
2023-03-23T17:05:12.308Z,3.58
2023-03-23T17:07:16.510Z,3.55
2023-03-23T17:09:20.466Z,3.40
2023-03-23T17:11:24.254Z,2.63
2023-03-23T17:13:29.083Z,3.72
2023-03-23T17:15:33.470Z,3.85
2023-03-23T17:17:38.132Z,2.95
2023-03-23T17:19:42.348Z,3.55
2023-03-23T17:21:47.998Z,3.70
2023-03-23T17:23:51.641Z,3.05
2023-03-23T17:25:55.710Z,3.28
2023-03-23T17:28:05.708Z,2.47
2023-03-23T17:30:11.556Z,1.90
2023-03-23T17:32:15.924Z,2.35
2023-03-23T17:34:22.218Z,2.63
2023-03-23T17:36:31.376Z,2.10
2023-03-23T17:38:36.454Z,2.13
2023-03-23T17:40:40.463Z,1.92
2023-03-23T17:42:43.944Z,2.58
2023-03-23T17:44:47.407Z,2.40
2023-03-23T17:46:50.965Z,2.63
2023-03-23T17:48:54.708Z,2.50
2023-03-23T17:50:59.154Z,2.20
2023-03-23T17:53:02.639Z,2.20
2023-03-23T17:55:08.786Z,2.40
2023-03-23T17:57:12.598Z,2.53
2023-03-23T17:59:16.315Z,2.17
2023-03-23T18:01:19.822Z,2.28
2023-03-23T18:03:24.467Z,2.33
2023-03-23T18:05:28.442Z,2.38
2023-03-23T18:07:31.904Z,2.00
2023-03-23T18:09:35.402Z,2.60
2023-03-23T18:11:40.261Z,2.47
2023-03-23T18:13:43.680Z,2.88
2023-03-23T18:15:47.214Z,3.15
2023-03-23T18:17:51.966Z,3.08
2023-03-23T18:19:55.783Z,3.70
2023-03-23T18:21:59.195Z,3.13
2023-03-23T18:24:02.578Z,2.80
2023-03-23T18:26:07.909Z,4.75
2023-03-23T18:28:12.708Z,3.60
2023-03-23T18:30:16.476Z,3.50
2023-03-23T18:32:19.962Z,3.42
2023-03-23T18:34:23.632Z,3.03
2023-03-23T18:36:28.641Z,3.10
2023-03-23T18:38:32.848Z,3.03
2023-03-23T18:40:36.339Z,2.78
2023-03-23T18:42:40.976Z,2.90
2023-03-23T18:44:45.976Z,3.70
2023-03-23T18:46:49.347Z,3.00
2023-03-23T18:48:52.768Z,3.30
2023-03-23T18:50:58.569Z,3.70
2023-03-23T18:53:02.025Z,3.42
2023-03-23T18:55:06.104Z,2.67
2023-03-23T18:57:09.524Z,2.95
2023-03-23T18:59:12.953Z,2.80
2023-03-23T19:01:18.715Z,3.10
2023-03-23T19:03:22.230Z,2.92
2023-03-23T19:05:25.729Z,2.95
2023-03-23T19:07:30.316Z,3.80
2023-03-23T19:09:35.364Z,5.32
2023-03-23T19:11:38.764Z,4.03
2023-03-23T19:13:54.007Z,3.72
2023-03-23T19:16:02.465Z,4.40
2023-03-23T19:18:07.524Z,4.78
2023-03-23T19:20:16.156Z,4.53
2023-03-23T19:22:20.713Z,5.38
2023-03-23T19:24:26.345Z,4.55
2023-03-23T19:26:33.928Z,4.35
2023-03-23T19:29:05.608Z,4.80
2023-03-23T19:31:03.042Z,5.22
2023-03-23T19:33:07.896Z,3.80
2023-03-23T19:35:11.503Z,3.63
2023-03-23T19:37:16.310Z,3.65
2023-03-23T19:39:20.509Z,3.80
2023-03-23T19:43:29.414Z,3.55
2023-03-23T19:45:32.907Z,2.90
2023-03-23T19:47:36.430Z,2.90
2023-03-23T19:49:41.431Z,3.25
2023-03-23T19:51:45.039Z,3.40
2023-03-23T19:53:49.222Z,3.42
2023-03-23T19:55:52.668Z,4.72
2023-03-23T19:57:56.143Z,4.68
2023-03-23T20:00:00.127Z,4.38
2023-03-23T20:02:03.760Z,5.47
2023-03-23T20:04:07.188Z,5.88
2023-03-23T20:06:15.352Z,4.95
2023-03-23T20:08:18.934Z,4.88
2023-03-23T20:10:22.674Z,4.22
2023-03-23T20:12:26.461Z,4.28
2023-03-23T20:14:30.321Z,4.32
2023-03-23T20:16:34.143Z,3.88
2023-03-23T20:18:38.214Z,3.63
2023-03-23T20:20:41.801Z,3.47
2023-03-23T20:22:46.630Z,3.33
2023-03-23T20:24:50.035Z,3.20
2023-03-23T20:26:53.375Z,3.28
2023-03-23T20:28:57.000Z,2.95
2023-03-23T20:31:18.967Z,6.18
2023-03-23T20:33:26.627Z,4.97
2023-03-23T20:35:30.735Z,3.95
2023-03-23T20:37:34.614Z,3.30
2023-03-23T20:39:41.817Z,3.50
2023-03-23T20:41:48.441Z,3.40
2023-03-23T20:43:51.939Z,3.08
2023-03-23T20:45:55.332Z,3.40
2023-03-23T20:48:02.290Z,3.50
2023-03-23T20:50:07.333Z,3.67
2023-03-23T20:52:12.014Z,4.00
2023-03-23T20:54:16.196Z,3.65
2023-03-23T20:56:21.252Z,4.45
2023-03-23T20:58:26.384Z,3.83
2023-03-23T21:00:29.745Z,5.03
2023-03-23T21:02:34.283Z,4.50
2023-03-23T21:04:40.096Z,5.13
2023-03-23T21:06:44.175Z,5.25
2023-03-23T21:08:47.757Z,5.88
2023-03-23T21:10:52.392Z,5.97
2023-03-23T21:12:57.338Z,5.88
2023-03-23T21:15:00.720Z,6.32
2023-03-23T21:17:04.815Z,8.30
2023-03-23T21:19:09.103Z,7.57
2023-03-23T21:21:15.037Z,6.82
2023-03-23T21:23:19.588Z,8.13
2023-03-23T21:25:34.090Z,8.15
2023-03-23T21:27:39.147Z,8.73
2023-03-23T21:29:44.938Z,8.68
2023-03-23T21:31:52.138Z,8.73
2023-03-23T21:34:01.525Z,8.38
2023-03-23T21:36:05.185Z,9.20
2023-03-23T21:38:14.257Z,9.80
2023-03-23T21:40:19.275Z,8.82
2023-03-23T21:42:30.398Z,9.52
2023-03-23T21:44:35.422Z,10.90
2023-03-23T21:46:42.091Z,10.57
2023-03-23T21:48:45.986Z,11.15
2023-03-23T21:50:49.929Z,11.07
2023-03-23T21:52:54.059Z,10.63
2023-03-23T21:54:58.902Z,11.15
2023-03-23T21:57:02.422Z,10.57
2023-03-23T21:59:07.708Z,11.05
2023-03-23T22:01:13.060Z,11.13
2023-03-23T22:03:23.039Z,11.25
2023-03-23T22:05:26.850Z,10.75
2023-03-23T22:07:33.396Z,10.65
2023-03-23T22:09:39.023Z,10.05
2023-03-23T22:11:44.246Z,9.75
2023-03-23T22:13:49.042Z,9.93
2023-03-23T22:15:53.263Z,10.40
2023-03-23T22:17:57.115Z,10.82
2023-03-23T22:20:02.193Z,10.30
2023-03-23T22:22:05.971Z,9.90
2023-03-23T22:24:09.677Z,10.18
2023-03-23T22:26:14.558Z,10.50
2023-03-23T22:28:19.625Z,10.52
2023-03-23T22:30:24.621Z,10.50
2023-03-23T22:32:28.219Z,10.98
2023-03-23T22:34:32.583Z,10.80
2023-03-23T22:36:38.906Z,10.45
2023-03-23T22:38:44.162Z,11.13
2023-03-23T22:40:55.914Z,9.93
2023-03-23T22:42:59.831Z,10.75
2023-03-23T22:45:03.774Z,10.65
2023-03-23T22:47:07.515Z,10.75
2023-03-23T22:49:11.812Z,10.70
2023-03-23T22:51:17.837Z,11.23
2023-03-23T22:53:23.513Z,10.25
2023-03-23T22:55:27.166Z,10.70
2023-03-23T22:57:30.756Z,10.00
2023-03-23T22:59:34.465Z,9.73
2023-03-23T23:01:38.220Z,9.32
2023-03-23T23:03:42.160Z,8.23
2023-03-23T23:05:47.150Z,8.88
2023-03-23T23:07:50.844Z,9.63
2023-03-23T23:09:55.875Z,8.60
2023-03-23T23:11:59.408Z,8.75
2023-03-23T23:14:03.343Z,8.20
2023-03-23T23:16:08.107Z,7.90
2023-03-23T23:18:12.546Z,8.00
2023-03-23T23:20:17.045Z,8.30
2023-03-23T23:22:21.481Z,7.38
2023-03-23T23:24:26.577Z,7.50
2023-03-23T23:26:31.691Z,7.32
2023-03-23T23:28:36.211Z,7.22
2023-03-23T23:30:40.000Z,7.68
2023-03-23T23:32:44.771Z,6.88
2023-03-23T23:34:48.586Z,6.95
2023-03-23T23:36:52.249Z,7.00
2023-03-23T23:38:56.088Z,6.97
2023-03-23T23:40:59.706Z,6.65
2023-03-23T23:43:06.242Z,6.72
2023-03-23T23:45:10.853Z,6.22
2023-03-23T23:47:14.739Z,5.47
2023-03-23T23:49:18.358Z,5.85
2023-03-23T23:51:22.278Z,5.68
2023-03-23T23:53:26.037Z,5.03
2023-03-23T23:55:30.241Z,4.85
2023-03-23T23:57:33.977Z,4.63
2023-03-23T23:59:39.017Z,4.80
